Time;durP1;ratioP1;P1;durP2;ratioP2;P2;SDS_P1;SDS_P2;PMS_P1;PMS_P2;Temp;Humidity;BMP_temperature;BMP_pressure;BME280_temperature;BME280_humidity;BME280_pressure;Samples;Min_cycle;Max_cycle;Signal;HPM_P1;HPM_P2
2022/10/30 00:02:21;;;;;;;;;13.67;9.67;;;;;;;;5051731;28;45354;-67
2022/10/30 00:04:46;;;;;;;;;11.33;8.33;;;;;;;;5073392;28;45446;-66
2022/10/30 00:07:11;;;;;;;;;11.67;9.00;;;;;;;;5070261;28;45726;-66
2022/10/30 00:09:37;;;;;;;;;11.00;8.67;;;;;;;;5040296;28;45949;-67
2022/10/30 00:12:02;;;;;;;;;13.33;8.33;;;;;;;;5041824;28;45803;-67
2022/10/30 00:14:27;;;;;;;;;9.00;8.00;;;;;;;;5059013;28;45879;-66
2022/10/30 00:16:53;;;;;;;;;10.00;9.00;;;;;;;;5050775;28;45765;-66
2022/10/30 00:19:18;;;;;;;;;9.67;6.33;;;;;;;;5063392;28;45809;-66
2022/10/30 00:21:43;;;;;;;;;9.33;8.67;;;;;;;;5073841;28;45645;-66
2022/10/30 00:24:09;;;;;;;;;9.67;7.33;;;;;;;;5048183;28;45699;-66
2022/10/30 00:26:34;;;;;;;;;15.00;11.00;;;;;;;;5039964;28;45411;-67
2022/10/30 00:28:59;;;;;;;;;11.33;9.00;;;;;;;;5022637;28;46995;-67
2022/10/30 00:31:25;;;;;;;;;11.67;10.67;;;;;;;;5031863;28;45367;-66
2022/10/30 00:33:51;;;;;;;;;8.67;8.67;;;;;;;;5055230;28;45495;-66
2022/10/30 00:36:16;;;;;;;;;10.67;9.67;;;;;;;;5048792;28;45981;-65
2022/10/30 00:38:42;;;;;;;;;11.00;11.00;;;;;;;;5061504;28;45710;-66
2022/10/30 00:41:12;;;;;;;;;18.67;13.00;;;;;;;;5061092;28;45717;-66
2022/10/30 00:43:38;;;;;;;;;15.00;14.00;;;;;;;;5053433;28;45593;-66
2022/10/30 00:46:24;;;;;;;;;10.00;9.67;;;;;;;;5062940;28;45428;-66
2022/10/30 00:48:54;;;;;;;;;11.33;11.33;;;;;;;;5057295;28;45455;-67
2022/10/30 00:51:20;;;;;;;;;13.00;12.00;;;;;;;;5063911;28;45394;-67
2022/10/30 00:53:46;;;;;;;;;18.67;10.67;;;;;;;;5036806;28;45627;-67
2022/10/30 00:56:14;;;;;;;;;13.33;12.67;;;;;;;;5064997;28;45626;-66
2022/10/30 00:58:45;;;;;;;;;14.33;11.33;;;;;;;;5067469;28;45654;-66
2022/10/30 01:01:14;;;;;;;;;12.33;12.00;;;;;;;;5065853;28;45397;-65
2022/10/30 01:03:40;;;;;;;;;11.33;10.00;;;;;;;;5053487;28;45636;-66
2022/10/30 01:06:07;;;;;;;;;10.33;10.33;;;;;;;;5054566;28;45537;-66
2022/10/30 01:08:33;;;;;;;;;10.67;9.33;;;;;;;;5072012;28;46193;-67
2022/10/30 01:11:00;;;;;;;;;12.00;12.00;;;;;;;;5073907;28;45412;-65
2022/10/30 01:13:26;;;;;;;;;10.67;10.67;;;;;;;;5060404;28;45436;-64
2022/10/30 01:16:00;;;;;;;;;10.67;9.67;;;;;;;;5055432;28;45689;-66
2022/10/30 01:18:26;;;;;;;;;12.00;11.67;;;;;;;;5053265;28;45469;-66
2022/10/30 01:20:54;;;;;;;;;13.33;11.67;;;;;;;;5051317;28;45471;-66
2022/10/30 01:23:25;;;;;;;;;15.67;13.67;;;;;;;;5052600;28;45646;-65
2022/10/30 01:26:05;;;;;;;;;17.00;12.33;;;;;;;;5047567;28;45596;-65
2022/10/30 01:28:33;;;;;;;;;18.00;14.00;;;;;;;;5054592;28;45461;-67
2022/10/30 01:30:59;;;;;;;;;17.33;12.67;;;;;;;;5054365;28;45668;-65
2022/10/30 01:33:43;;;;;;;;;16.00;11.67;;;;;;;;5049133;28;45724;-66
2022/10/30 01:36:31;;;;;;;;;10.67;10.67;;;;;;;;5053030;28;45839;-66
2022/10/30 01:39:03;;;;;;;;;12.33;8.00;;;;;;;;5042546;28;45378;-66
2022/10/30 01:41:28;;;;;;;;;15.33;13.33;;;;;;;;5063948;28;45723;-65
2022/10/30 01:43:56;;;;;;;;;13.67;13.33;;;;;;;;5060856;28;45954;-66
2022/10/30 01:46:30;;;;;;;;;16.67;13.33;;;;;;;;5063569;28;45558;-65
2022/10/30 01:48:58;;;;;;;;;18.67;14.00;;;;;;;;5040997;28;47604;-66
2022/10/30 01:51:33;;;;;;;;;22.00;17.00;;;;;;;;5050284;28;45436;-66
2022/10/30 01:53:58;;;;;;;;;20.33;16.33;;;;;;;;5060104;28;45799;-65
2022/10/30 01:56:32;;;;;;;;;23.33;19.67;;;;;;;;5036333;28;46625;-65
2022/10/30 01:59:21;;;;;;;;;20.33;18.67;;;;;;;;5039208;28;46995;-65
2022/10/30 02:01:47;;;;;;;;;19.00;15.00;;;;;;;;5056564;28;45688;-65
2022/10/30 02:04:13;;;;;;;;;14.00;12.67;;;;;;;;5059886;28;45630;-66
2022/10/30 02:06:40;;;;;;;;;19.33;18.00;;;;;;;;5045255;28;46126;-64
2022/10/30 02:09:05;;;;;;;;;22.67;19.67;;;;;;;;5040844;28;46002;-66
2022/10/30 02:11:31;;;;;;;;;18.33;14.00;;;;;;;;5048564;28;45456;-66
2022/10/30 02:13:57;;;;;;;;;18.00;16.67;;;;;;;;5047468;28;45611;-65
2022/10/30 02:16:22;;;;;;;;;16.33;11.67;;;;;;;;5064845;28;45664;-66
2022/10/30 02:18:48;;;;;;;;;20.67;17.33;;;;;;;;5048909;28;46503;-67
2022/10/30 02:21:13;;;;;;;;;14.00;14.00;;;;;;;;5057967;28;45822;-65
2022/10/30 02:23:38;;;;;;;;;12.33;11.67;;;;;;;;5033327;28;45696;-66
2022/10/30 02:26:04;;;;;;;;;15.33;13.67;;;;;;;;5034646;28;45842;-65
2022/10/30 02:28:29;;;;;;;;;14.00;12.33;;;;;;;;5063509;28;45717;-65
2022/10/30 02:30:54;;;;;;;;;15.67;14.00;;;;;;;;5055673;28;45719;-67
2022/10/30 02:33:19;;;;;;;;;15.33;15.33;;;;;;;;5048547;28;45700;-65
2022/10/30 02:35:44;;;;;;;;;17.33;14.33;;;;;;;;5052447;28;45870;-65
2022/10/30 02:38:10;;;;;;;;;17.00;16.67;;;;;;;;5033626;28;46577;-66
2022/10/30 02:40:35;;;;;;;;;15.33;12.33;;;;;;;;5068049;28;45732;-65
2022/10/30 02:43:00;;;;;;;;;22.00;14.67;;;;;;;;5047030;28;45615;-65
2022/10/30 02:45:25;;;;;;;;;13.67;10.67;;;;;;;;5037032;28;45486;-65
2022/10/30 02:47:51;;;;;;;;;17.00;15.00;;;;;;;;5039761;28;45757;-66
2022/10/30 02:50:16;;;;;;;;;18.33;15.00;;;;;;;;5040649;28;45683;-66
2022/10/30 02:52:41;;;;;;;;;14.00;14.00;;;;;;;;5046432;28;45568;-66
2022/10/30 02:55:07;;;;;;;;;19.33;12.67;;;;;;;;5048852;28;45721;-66
2022/10/30 02:57:32;;;;;;;;;13.00;11.33;;;;;;;;5040880;28;47734;-66
2022/10/30 02:59:58;;;;;;;;;15.67;13.33;;;;;;;;5068933;28;45460;-66
2022/10/30 03:02:23;;;;;;;;;11.00;11.00;;;;;;;;5060640;28;45444;-68
2022/10/30 03:04:48;;;;;;;;;17.00;14.33;;;;;;;;5059390;28;46057;-65
2022/10/30 03:07:13;;;;;;;;;27.00;16.67;;;;;;;;5064923;28;45743;-65
2022/10/30 03:09:39;;;;;;;;;13.67;12.67;;;;;;;;5069215;28;45416;-66
2022/10/30 03:12:04;;;;;;;;;18.00;15.67;;;;;;;;5048876;28;45635;-65
2022/10/30 03:14:29;;;;;;;;;16.33;14.67;;;;;;;;5046961;28;45336;-64
2022/10/30 03:16:55;;;;;;;;;18.33;16.00;;;;;;;;5050381;28;46163;-66
2022/10/30 03:19:20;;;;;;;;;18.33;17.33;;;;;;;;5053235;28;45596;-66
2022/10/30 03:21:45;;;;;;;;;18.67;17.00;;;;;;;;5042830;28;45656;-65
2022/10/30 03:24:11;;;;;;;;;16.67;14.00;;;;;;;;5046963;28;45832;-65
2022/10/30 03:26:36;;;;;;;;;20.33;16.33;;;;;;;;5047300;28;45859;-65
2022/10/30 03:29:01;;;;;;;;;20.33;20.00;;;;;;;;5051652;28;45251;-67
2022/10/30 03:31:29;;;;;;;;;28.33;20.00;;;;;;;;5047861;28;45529;-65
2022/10/30 03:33:54;;;;;;;;;24.00;19.00;;;;;;;;5023246;28;45648;-65
2022/10/30 03:36:19;;;;;;;;;22.33;16.33;;;;;;;;5034004;28;46603;-67
2022/10/30 03:38:44;;;;;;;;;24.00;18.00;;;;;;;;5033567;28;45877;-67
2022/10/30 03:41:10;;;;;;;;;18.00;13.00;;;;;;;;5046533;28;45550;-66
2022/10/30 03:43:35;;;;;;;;;24.67;17.67;;;;;;;;5051755;28;45773;-66
2022/10/30 03:46:00;;;;;;;;;22.67;18.67;;;;;;;;5055693;28;46471;-64
2022/10/30 03:48:26;;;;;;;;;19.33;17.67;;;;;;;;5041461;28;45659;-66
2022/10/30 03:50:52;;;;;;;;;21.33;18.67;;;;;;;;5066998;28;45816;-66
2022/10/30 03:53:17;;;;;;;;;21.00;20.00;;;;;;;;5060575;28;45747;-70
2022/10/30 03:55:42;;;;;;;;;23.33;20.67;;;;;;;;5031701;28;45745;-65
2022/10/30 03:58:08;;;;;;;;;22.67;17.33;;;;;;;;5035413;28;45746;-64
2022/10/30 04:00:33;;;;;;;;;18.00;18.00;;;;;;;;5037501;28;45747;-65
2022/10/30 04:02:59;;;;;;;;;16.67;14.00;;;;;;;;5043181;28;47010;-71
2022/10/30 04:05:25;;;;;;;;;25.33;19.33;;;;;;;;5035166;28;46088;-68
2022/10/30 04:07:57;;;;;;;;;23.00;21.67;;;;;;;;5034779;28;45405;-70
2022/10/30 04:10:23;;;;;;;;;22.67;18.33;;;;;;;;5033452;28;45364;-70
2022/10/30 04:12:48;;;;;;;;;19.33;17.00;;;;;;;;5036512;28;45694;-68
2022/10/30 04:15:14;;;;;;;;;18.67;15.67;;;;;;;;5041322;28;45747;-69
2022/10/30 04:17:39;;;;;;;;;19.67;18.67;;;;;;;;5037989;28;45492;-69
2022/10/30 04:20:04;;;;;;;;;20.67;16.00;;;;;;;;5037275;28;45235;-71
2022/10/30 04:22:29;;;;;;;;;25.33;21.00;;;;;;;;5044155;28;45685;-65
2022/10/30 04:24:55;;;;;;;;;33.67;30.67;;;;;;;;5021240;28;45483;-66
2022/10/30 04:27:20;;;;;;;;;35.00;28.33;;;;;;;;5030611;28;45543;-65
2022/10/30 04:29:46;;;;;;;;;32.67;31.67;;;;;;;;5047725;28;45291;-66
2022/10/30 04:32:11;;;;;;;;;32.33;26.00;;;;;;;;5046996;28;46539;-65
2022/10/30 04:34:38;;;;;;;;;26.67;23.33;;;;;;;;5054524;28;45640;-65
2022/10/30 04:37:03;;;;;;;;;27.67;22.33;;;;;;;;5043849;28;45424;-65
2022/10/30 04:39:29;;;;;;;;;28.33;26.33;;;;;;;;5049577;28;46067;-66
2022/10/30 04:41:54;;;;;;;;;26.33;22.67;;;;;;;;5048679;28;45404;-64
2022/10/30 04:44:19;;;;;;;;;23.33;19.00;;;;;;;;5040117;28;46291;-67
2022/10/30 04:46:45;;;;;;;;;12.00;12.00;;;;;;;;5060892;28;45722;-64
2022/10/30 04:49:10;;;;;;;;;21.00;18.33;;;;;;;;5056831;28;45844;-66
2022/10/30 04:51:35;;;;;;;;;17.67;14.33;;;;;;;;5051992;28;45788;-68
2022/10/30 04:54:01;;;;;;;;;22.00;20.00;;;;;;;;5051875;28;45452;-69
2022/10/30 04:56:26;;;;;;;;;20.00;16.33;;;;;;;;5050340;28;46542;-67
2022/10/30 04:58:52;;;;;;;;;20.00;18.00;;;;;;;;5043601;28;45928;-71
2022/10/30 05:01:17;;;;;;;;;23.00;21.67;;;;;;;;5049421;28;45478;-68
2022/10/30 05:03:42;;;;;;;;;27.33;18.33;;;;;;;;5040032;28;46557;-67
2022/10/30 05:06:28;;;;;;;;;19.67;18.33;;;;;;;;5041405;28;45789;-68
2022/10/30 05:08:54;;;;;;;;;18.33;17.33;;;;;;;;5054969;28;45463;-64
2022/10/30 05:11:19;;;;;;;;;23.00;18.00;;;;;;;;5064682;28;45439;-65
2022/10/30 05:13:45;;;;;;;;;19.67;17.67;;;;;;;;5048970;28;46801;-65
2022/10/30 05:16:10;;;;;;;;;30.00;27.00;;;;;;;;5040185;28;45349;-64
2022/10/30 05:18:35;;;;;;;;;23.33;20.33;;;;;;;;5035977;28;45593;-65
2022/10/30 05:21:00;;;;;;;;;21.67;20.00;;;;;;;;5048452;28;45470;-66
2022/10/30 05:23:26;;;;;;;;;20.67;17.67;;;;;;;;5051844;28;46399;-65
2022/10/30 05:25:51;;;;;;;;;23.67;21.67;;;;;;;;5064428;28;45676;-64
2022/10/30 05:28:16;;;;;;;;;22.67;19.00;;;;;;;;5046501;28;45500;-65
2022/10/30 05:30:41;;;;;;;;;20.00;17.00;;;;;;;;5063904;28;45467;-66
2022/10/30 05:33:09;;;;;;;;;22.67;18.67;;;;;;;;5059801;28;45414;-65
2022/10/30 05:35:34;;;;;;;;;19.33;15.33;;;;;;;;5058853;28;46046;-65
2022/10/30 05:38:00;;;;;;;;;28.33;21.00;;;;;;;;5061406;28;45671;-64
2022/10/30 05:40:26;;;;;;;;;23.00;20.33;;;;;;;;5070205;28;46073;-65
2022/10/30 05:42:52;;;;;;;;;26.33;19.67;;;;;;;;5067378;28;45658;-65
2022/10/30 05:45:17;;;;;;;;;26.00;19.00;;;;;;;;5069788;28;45411;-64
2022/10/30 05:47:42;;;;;;;;;21.00;18.33;;;;;;;;5070770;28;45429;-65
2022/10/30 05:50:08;;;;;;;;;31.67;24.00;;;;;;;;5071321;28;45373;-67
2022/10/30 05:52:33;;;;;;;;;28.33;27.00;;;;;;;;5052878;28;47174;-65
2022/10/30 05:54:59;;;;;;;;;28.00;24.33;;;;;;;;5069498;28;45492;-66
2022/10/30 05:57:28;;;;;;;;;27.00;22.00;;;;;;;;5069602;28;45693;-65
2022/10/30 05:59:53;;;;;;;;;20.33;19.67;;;;;;;;5071648;28;45299;-72
2022/10/30 06:02:19;;;;;;;;;22.67;17.67;;;;;;;;5069008;28;46207;-73
2022/10/30 06:04:44;;;;;;;;;22.00;15.67;;;;;;;;5063247;28;45779;-78
2022/10/30 06:07:10;;;;;;;;;27.00;23.00;;;;;;;;5042083;28;45401;-75
2022/10/30 06:09:35;;;;;;;;;28.33;22.67;;;;;;;;5051571;28;45565;-76
2022/10/30 06:12:00;;;;;;;;;27.00;20.33;;;;;;;;5052291;28;45955;-75
2022/10/30 06:14:26;;;;;;;;;22.33;21.00;;;;;;;;5057800;28;45701;-65
2022/10/30 06:16:51;;;;;;;;;63.00;48.67;;;;;;;;5069833;28;45351;-74
2022/10/30 06:19:16;;;;;;;;;27.00;20.33;;;;;;;;5056066;28;45623;-74
2022/10/30 06:21:41;;;;;;;;;22.00;17.33;;;;;;;;5071228;28;45728;-74
2022/10/30 06:24:07;;;;;;;;;22.67;18.00;;;;;;;;5066744;28;45353;-73
2022/10/30 06:26:32;;;;;;;;;22.00;21.00;;;;;;;;5071008;28;45654;-76
2022/10/30 06:28:57;;;;;;;;;19.67;17.33;;;;;;;;5067568;28;45691;-65
2022/10/30 06:31:22;;;;;;;;;24.67;22.33;;;;;;;;5056862;28;45779;-65
2022/10/30 06:33:48;;;;;;;;;22.67;19.67;;;;;;;;5060686;28;45700;-66
2022/10/30 06:36:13;;;;;;;;;19.00;19.00;;;;;;;;5069805;28;45688;-66
2022/10/30 06:38:38;;;;;;;;;18.33;16.67;;;;;;;;5064774;28;45727;-65
2022/10/30 06:41:03;;;;;;;;;20.00;17.67;;;;;;;;5043227;28;47298;-67
2022/10/30 06:43:30;;;;;;;;;22.67;15.33;;;;;;;;5062129;28;45500;-65
2022/10/30 06:45:59;;;;;;;;;19.00;15.00;;;;;;;;5058252;28;45684;-74
2022/10/30 06:48:24;;;;;;;;;20.33;18.67;;;;;;;;5059427;28;45979;-74
2022/10/30 06:50:53;;;;;;;;;20.67;15.67;;;;;;;;5066261;28;45682;-73
2022/10/30 06:53:18;;;;;;;;;16.00;14.33;;;;;;;;5071636;28;45392;-73
2022/10/30 06:55:43;;;;;;;;;19.67;16.33;;;;;;;;5059529;28;45692;-75
2022/10/30 06:58:08;;;;;;;;;25.00;18.00;;;;;;;;5052518;28;45643;-74
2022/10/30 07:00:34;;;;;;;;;20.67;16.00;;;;;;;;5042032;28;45638;-73
2022/10/30 07:03:00;;;;;;;;;18.00;16.67;;;;;;;;5036590;28;45383;-74
2022/10/30 07:05:25;;;;;;;;;18.33;18.33;;;;;;;;5049470;28;45424;-74
2022/10/30 07:07:50;;;;;;;;;24.33;19.00;;;;;;;;5059736;28;46004;-73
2022/10/30 07:10:16;;;;;;;;;16.67;15.67;;;;;;;;5059039;28;45630;-74
2022/10/30 07:12:41;;;;;;;;;20.00;18.67;;;;;;;;5068376;28;45652;-70
2022/10/30 07:15:06;;;;;;;;;30.33;28.33;;;;;;;;5061856;28;45350;-73
2022/10/30 07:17:31;;;;;;;;;29.67;28.00;;;;;;;;5064018;28;45772;-75
2022/10/30 07:19:57;;;;;;;;;35.67;31.00;;;;;;;;5042833;28;45689;-74
2022/10/30 07:22:22;;;;;;;;;26.00;23.00;;;;;;;;5049081;28;45344;-74
2022/10/30 07:24:47;;;;;;;;;19.33;17.33;;;;;;;;5053356;28;45601;-74
2022/10/30 07:27:13;;;;;;;;;18.33;16.67;;;;;;;;5043954;28;45790;-74
2022/10/30 07:29:38;;;;;;;;;22.33;16.33;;;;;;;;5042579;28;45603;-76
2022/10/30 07:32:03;;;;;;;;;18.00;17.33;;;;;;;;5059890;28;45711;-74
2022/10/30 07:34:29;;;;;;;;;16.67;15.33;;;;;;;;5059972;28;45365;-74
2022/10/30 07:36:54;;;;;;;;;15.00;14.67;;;;;;;;5066192;28;45439;-67
2022/10/30 07:39:19;;;;;;;;;21.67;19.00;;;;;;;;5067862;28;45488;-67
2022/10/30 07:41:44;;;;;;;;;65.25;47.75;;;;;;;;5064076;28;45936;-67
2022/10/30 07:44:10;;;;;;;;;23.33;21.67;;;;;;;;5040430;28;46483;-67
2022/10/30 07:46:35;;;;;;;;;17.33;16.33;;;;;;;;5046058;28;45559;-67
2022/10/30 07:49:00;;;;;;;;;17.00;16.00;;;;;;;;5032502;28;45782;-67
2022/10/30 07:51:25;;;;;;;;;17.33;15.33;;;;;;;;5030882;28;45383;-68
2022/10/30 07:53:51;;;;;;;;;23.67;19.67;;;;;;;;5051130;28;45390;-67
2022/10/30 07:56:16;;;;;;;;;20.67;17.33;;;;;;;;5045309;28;45331;-67
2022/10/30 07:58:41;;;;;;;;;19.00;17.33;;;;;;;;5049440;28;45338;-77
2022/10/30 08:01:06;;;;;;;;;15.67;14.67;;;;;;;;5045606;28;45703;-75
2022/10/30 08:03:32;;;;;;;;;21.33;20.00;;;;;;;;5041405;28;45777;-66
2022/10/30 08:05:57;;;;;;;;;22.00;16.33;;;;;;;;5056838;28;45480;-68
2022/10/30 08:08:22;;;;;;;;;23.00;18.33;;;;;;;;5074890;28;45742;-75
2022/10/30 08:10:47;;;;;;;;;18.33;16.33;;;;;;;;5074033;28;45741;-75
2022/10/30 08:13:13;;;;;;;;;21.33;17.67;;;;;;;;5074745;28;45723;-67
2022/10/30 08:15:40;;;;;;;;;19.67;15.00;;;;;;;;5072773;28;45556;-66
2022/10/30 08:18:06;;;;;;;;;20.33;17.67;;;;;;;;5065517;28;46392;-67
2022/10/30 08:20:31;;;;;;;;;20.67;18.33;;;;;;;;5050248;28;45702;-67
2022/10/30 08:22:56;;;;;;;;;22.33;17.33;;;;;;;;5073588;28;45582;-67
2022/10/30 08:25:26;;;;;;;;;15.00;13.00;;;;;;;;5071896;28;45800;-66
2022/10/30 08:27:55;;;;;;;;;20.33;17.00;;;;;;;;5075067;28;46190;-68
2022/10/30 08:30:22;;;;;;;;;21.33;17.67;;;;;;;;5060047;28;45902;-66
2022/10/30 08:32:47;;;;;;;;;20.67;19.00;;;;;;;;5066916;28;45391;-66
2022/10/30 08:35:12;;;;;;;;;15.67;13.33;;;;;;;;5060568;28;45393;-75
2022/10/30 08:37:37;;;;;;;;;16.33;15.67;;;;;;;;5065172;28;46505;-78
2022/10/30 08:40:03;;;;;;;;;21.67;18.67;;;;;;;;5065670;28;45612;-73
2022/10/30 08:42:28;;;;;;;;;20.67;18.67;;;;;;;;5068545;28;45340;-75
2022/10/30 08:44:53;;;;;;;;;17.67;15.33;;;;;;;;5065014;28;45617;-76
2022/10/30 08:47:18;;;;;;;;;21.33;18.00;;;;;;;;5068687;28;46747;-73
2022/10/30 08:49:44;;;;;;;;;18.33;13.00;;;;;;;;5048741;28;45656;-76
2022/10/30 08:52:09;;;;;;;;;19.33;15.67;;;;;;;;5068990;28;45361;-75
2022/10/30 08:54:34;;;;;;;;;14.00;14.00;;;;;;;;5073219;22;45478;-86
2022/10/30 08:57:00;;;;;;;;;17.67;13.67;;;;;;;;5064134;28;45438;-87
2022/10/30 08:59:25;;;;;;;;;19.00;16.00;;;;;;;;5063757;28;45788;-85
2022/10/30 09:01:50;;;;;;;;;21.00;18.67;;;;;;;;5064368;28;44751;-85
2022/10/30 09:04:16;;;;;;;;;17.67;16.00;;;;;;;;5059889;28;45886;-87
2022/10/30 09:06:41;;;;;;;;;24.33;21.33;;;;;;;;5064146;28;45453;-86
2022/10/30 09:09:06;;;;;;;;;17.67;15.00;;;;;;;;5050778;28;45782;-84
2022/10/30 09:11:41;;;;;;;;;19.67;17.00;;;;;;;;5048053;28;44793;-85
2022/10/30 09:14:06;;;;;;;;;24.00;18.33;;;;;;;;5044378;28;45798;-86
2022/10/30 09:16:31;;;;;;;;;23.00;19.00;;;;;;;;5068906;28;46080;-85
2022/10/30 09:18:56;;;;;;;;;20.67;16.67;;;;;;;;5047398;28;45425;-85
2022/10/30 09:21:22;;;;;;;;;21.33;20.33;;;;;;;;5053962;28;45949;-84
2022/10/30 09:23:47;;;;;;;;;20.33;17.67;;;;;;;;5060770;28;45470;-85
2022/10/30 09:26:13;;;;;;;;;19.00;17.67;;;;;;;;5033673;28;46197;-86
2022/10/30 09:28:38;;;;;;;;;20.33;16.67;;;;;;;;5042583;28;45409;-85
2022/10/30 09:31:05;;;;;;;;;23.33;16.33;;;;;;;;5055471;28;45508;-84
2022/10/30 09:33:34;;;;;;;;;17.00;16.00;;;;;;;;5042666;28;46150;-84
2022/10/30 09:36:01;;;;;;;;;14.67;13.67;;;;;;;;5034328;28;48174;-83
2022/10/30 09:38:28;;;;;;;;;17.67;15.33;;;;;;;;5063511;28;45283;-84
2022/10/30 09:41:00;;;;;;;;;20.00;17.33;;;;;;;;5034843;28;45436;-83
2022/10/30 09:43:43;;;;;;;;;19.67;15.33;;;;;;;;5060556;28;45557;-86
2022/10/30 09:46:21;;;;;;;;;17.33;14.00;;;;;;;;5053203;28;45731;-82
2022/10/30 09:48:59;;;;;;;;;21.67;13.33;;;;;;;;5047053;28;45446;-86
2022/10/30 09:51:42;;;;;;;;;13.67;11.33;;;;;;;;5057775;28;45962;-85
2022/10/30 09:54:08;;;;;;;;;20.33;17.00;;;;;;;;5061473;28;45834;-86
2022/10/30 09:56:50;;;;;;;;;15.33;14.33;;;;;;;;5063615;28;48016;-85
2022/10/30 09:59:18;;;;;;;;;14.00;13.00;;;;;;;;5091203;27;45382;-86
2022/10/30 10:02:07;;;;;;;;;19.00;13.00;;;;;;;;5073997;28;45627;-86
2022/10/30 10:04:32;;;;;;;;;15.00;12.00;;;;;;;;5052868;28;45878;-86
2022/10/30 10:07:03;;;;;;;;;15.00;12.33;;;;;;;;5065111;28;47204;-87
2022/10/30 10:09:32;;;;;;;;;11.00;9.00;;;;;;;;5064980;28;45767;-86
2022/10/30 10:12:06;;;;;;;;;12.67;12.67;;;;;;;;5068146;28;45415;-86
2022/10/30 10:14:38;;;;;;;;;13.25;12.25;;;;;;;;5081969;28;45347;-86
2022/10/30 10:17:09;;;;;;;;;13.33;13.33;;;;;;;;5064930;28;47761;-87
2022/10/30 10:19:37;;;;;;;;;14.33;11.33;;;;;;;;5057554;28;45580;-83
2022/10/30 10:22:05;;;;;;;;;13.00;13.00;;;;;;;;5066363;28;45489;-85
2022/10/30 10:24:33;;;;;;;;;15.00;12.00;;;;;;;;5084798;27;45756;-84
2022/10/30 10:27:17;;;;;;;;;13.33;10.67;;;;;;;;5080739;28;45363;-87
2022/10/30 10:30:01;;;;;;;;;14.00;13.67;;;;;;;;5061519;28;45419;-86
2022/10/30 10:32:27;;;;;;;;;14.00;14.00;;;;;;;;5059128;28;45376;-85
2022/10/30 10:34:58;;;;;;;;;16.33;14.33;;;;;;;;5063293;28;45469;-85
2022/10/30 10:37:33;;;;;;;;;19.33;15.33;;;;;;;;5078769;28;45769;-86
2022/10/30 10:40:11;;;;;;;;;16.00;14.33;;;;;;;;5072001;28;45362;-85
2022/10/30 10:42:46;;;;;;;;;12.33;12.33;;;;;;;;5084048;28;45759;-84
2022/10/30 10:45:27;;;;;;;;;14.00;10.67;;;;;;;;5066674;28;45790;-87
2022/10/30 10:48:18;;;;;;;;;14.00;9.00;;;;;;;;5072082;27;45432;-86
2022/10/30 10:50:58;;;;;;;;;13.67;11.67;;;;;;;;5067733;28;45465;-86
2022/10/30 10:53:29;;;;;;;;;13.33;13.33;;;;;;;;5063146;28;45407;-85
2022/10/30 10:55:58;;;;;;;;;21.00;13.00;;;;;;;;5087000;28;45600;-86
2022/10/30 10:58:23;;;;;;;;;14.67;14.67;;;;;;;;5059298;28;47667;-86
2022/10/30 11:00:48;;;;;;;;;16.67;13.33;;;;;;;;5053478;28;45459;-87
2022/10/30 11:03:19;;;;;;;;;10.00;8.00;;;;;;;;5061306;28;45746;-86
2022/10/30 11:06:20;;;;;;;;;19.33;15.33;;;;;;;;5080686;28;45379;-86
2022/10/30 11:08:46;;;;;;;;;12.33;10.00;;;;;;;;5009155;28;47337;-87
2022/10/30 11:11:11;;;;;;;;;16.00;13.00;;;;;;;;5062633;28;45326;-85
2022/10/30 11:13:40;;;;;;;;;13.75;9.25;;;;;;;;5076497;27;45762;-87
2022/10/30 11:16:09;;;;;;;;;14.33;12.33;;;;;;;;5080858;28;45878;-85
2022/10/30 11:18:34;;;;;;;;;10.00;10.00;;;;;;;;5078021;28;46493;-86
2022/10/30 11:21:07;;;;;;;;;14.00;13.00;;;;;;;;5073184;28;45434;-86
2022/10/30 11:23:43;;;;;;;;;10.67;8.67;;;;;;;;5068341;28;45514;-86
2022/10/30 11:26:17;;;;;;;;;10.00;10.00;;;;;;;;5073697;28;45471;-87
2022/10/30 11:28:51;;;;;;;;;6.33;4.33;;;;;;;;5061052;28;47220;-87
2022/10/30 11:31:21;;;;;;;;;19.00;14.67;;;;;;;;5076596;28;45580;-87
2022/10/30 11:33:47;;;;;;;;;15.33;15.33;;;;;;;;5079990;28;45371;-85
2022/10/30 11:36:16;;;;;;;;;15.67;15.67;;;;;;;;5081999;28;45389;-86
2022/10/30 11:38:42;;;;;;;;;14.00;12.00;;;;;;;;5084056;28;45372;-87
2022/10/30 11:41:11;;;;;;;;;15.67;13.33;;;;;;;;5065129;28;45350;-86
2022/10/30 11:43:37;;;;;;;;;16.00;15.00;;;;;;;;5065322;28;45414;-87
2022/10/30 11:46:08;;;;;;;;;16.33;11.67;;;;;;;;5081610;27;45965;-85
2022/10/30 11:48:34;;;;;;;;;16.33;13.33;;;;;;;;5058893;28;45686;-87
2022/10/30 11:51:00;;;;;;;;;19.00;14.67;;;;;;;;5085858;28;45308;-87
2022/10/30 11:53:38;;;;;;;;;9.00;8.00;;;;;;;;5085216;28;45374;-86
2022/10/30 11:56:11;;;;;;;;;10.50;7.00;;;;;;;;5085291;28;45774;-86
2022/10/30 11:58:41;;;;;;;;;8.25;7.25;;;;;;;;5087290;27;45415;-88
2022/10/30 12:01:26;;;;;;;;;14.75;11.75;;;;;;;;5064335;28;45877;-86
2022/10/30 12:03:57;;;;;;;;;6.50;5.50;;;;;;;;5070141;27;45161;-87
2022/10/30 12:06:23;;;;;;;;;6.50;5.25;;;;;;;;5071756;27;46894;-87
2022/10/30 12:09:03;;;;;;;;;15.50;11.25;;;;;;;;5080181;27;45323;-89
2022/10/30 12:11:33;;;;;;;;;10.50;7.25;;;;;;;;5073882;28;45711;-86
2022/10/30 12:13:58;;;;;;;;;6.00;5.67;;;;;;;;5066132;28;44919;-88
2022/10/30 12:16:25;;;;;;;;;5.00;5.00;;;;;;;;5075803;28;45716;-85
2022/10/30 12:18:56;;;;;;;;;9.00;8.00;;;;;;;;5080967;28;47057;-85
2022/10/30 12:21:23;;;;;;;;;7.67;5.00;;;;;;;;5063448;28;45646;-85
2022/10/30 12:24:00;;;;;;;;;17.33;16.00;;;;;;;;5084430;28;45334;-85
2022/10/30 12:26:33;;;;;;;;;8.67;5.00;;;;;;;;5064064;28;45069;-86
2022/10/30 12:29:00;;;;;;;;;8.33;6.67;;;;;;;;5064578;28;46563;-86
2022/10/30 12:31:32;;;;;;;;;7.67;7.33;;;;;;;;5064839;28;46182;-87
2022/10/30 12:34:23;;;;;;;;;6.00;4.67;;;;;;;;5082744;28;45756;-86
2022/10/30 12:37:07;;;;;;;;;6.33;6.00;;;;;;;;5077675;28;45501;-86
2022/10/30 12:39:35;;;;;;;;;6.33;5.00;;;;;;;;5085503;27;46362;-86
2022/10/30 12:42:22;;;;;;;;;6.00;5.00;;;;;;;;5064785;28;45388;-87
2022/10/30 12:44:47;;;;;;;;;6.67;5.67;;;;;;;;5065054;28;45426;-86
2022/10/30 12:47:12;;;;;;;;;5.50;5.50;;;;;;;;5053923;28;45861;-86
2022/10/30 12:49:42;;;;;;;;;5.33;5.00;;;;;;;;5082200;28;46127;-85
2022/10/30 12:52:10;;;;;;;;;5.33;3.33;;;;;;;;5077369;28;45836;-85
2022/10/30 12:54:42;;;;;;;;;5.50;4.50;;;;;;;;5079427;28;45746;-87
2022/10/30 12:57:11;;;;;;;;;3.00;3.00;;;;;;;;5076748;27;46307;-83
2022/10/30 12:59:39;;;;;;;;;5.00;4.00;;;;;;;;5079390;28;45892;-84
2022/10/30 13:02:15;;;;;;;;;6.00;5.00;;;;;;;;5079690;28;45429;-84
2022/10/30 13:04:43;;;;;;;;;5.33;4.67;;;;;;;;5071678;27;45563;-85
2022/10/30 13:07:18;;;;;;;;;4.00;3.00;;;;;;;;5087724;27;45125;-84
2022/10/30 13:09:50;;;;;;;;;6.00;6.00;;;;;;;;5060419;28;48116;-84
2022/10/30 13:12:21;;;;;;;;;7.00;4.00;;;;;;;;5061602;28;45483;-83
2022/10/30 13:14:50;;;;;;;;;5.00;4.00;;;;;;;;5048774;28;45829;-84
2022/10/30 13:17:18;;;;;;;;;4.00;4.00;;;;;;;;5061195;27;45530;-84
2022/10/30 13:19:53;;;;;;;;;4.67;4.33;;;;;;;;5057092;28;45569;-86
2022/10/30 13:22:22;;;;;;;;;5.00;5.00;;;;;;;;5063601;28;45407;-85
2022/10/30 13:25:00;;;;;;;;;2.50;2.50;;;;;;;;5066170;28;45296;-86
2022/10/30 13:27:25;;;;;;;;;2.00;1.75;;;;;;;;5067514;27;45676;-85
2022/10/30 13:30:02;;;;;;;;;20.00;17.33;;;;;;;;5085565;27;45589;-87
2022/10/30 13:32:34;;;;;;;;;21.00;14.00;;;;;;;;5049472;28;45489;-84
2022/10/30 13:34:59;;;;;;;;;7.67;7.67;;;;;;;;5055622;28;45420;-84
2022/10/30 13:37:36;;;;;;;;;2.25;2.25;;;;;;;;5075941;28;45332;-85
2022/10/30 13:40:05;;;;;;;;;5.67;3.33;;;;;;;;5057867;28;48306;-86
2022/10/30 13:42:30;;;;;;;;;3.75;3.00;;;;;;;;5076364;28;45115;-86
2022/10/30 13:45:11;;;;;;;;;4.50;3.00;;;;;;;;5065660;28;45839;-86
2022/10/30 13:47:42;;;;;;;;;7.00;4.00;;;;;;;;5077544;28;45876;-87
2022/10/30 13:50:19;;;;;;;;;3.25;2.00;;;;;;;;5061667;28;48247;-86
2022/10/30 13:52:52;;;;;;;;;8.00;5.33;;;;;;;;5072761;28;45643;-86
2022/10/30 13:55:31;;;;;;;;;5.25;4.25;;;;;;;;5057721;28;45533;-86
2022/10/30 13:58:02;;;;;;;;;5.50;4.00;;;;;;;;5071042;27;45551;-86
2022/10/30 14:00:43;;;;;;;;;2.75;2.75;;;;;;;;5063778;28;47957;-87
2022/10/30 14:03:14;;;;;;;;;5.00;3.00;;;;;;;;5077146;28;45403;-87
2022/10/30 14:05:58;;;;;;;;;2.00;2.00;;;;;;;;5074809;27;45373;-86
2022/10/30 14:08:42;;;;;;;;;6.50;6.50;;;;;;;;5046753;28;47389;-86
2022/10/30 14:11:14;;;;;;;;;3.25;3.25;;;;;;;;5061166;28;45714;-87
2022/10/30 14:13:49;;;;;;;;;4.25;4.25;;;;;;;;5062618;28;45506;-86
2022/10/30 14:16:33;;;;;;;;;2.75;1.75;;;;;;;;5059417;28;45498;-86
2022/10/30 14:19:02;;;;;;;;;5.25;4.00;;;;;;;;5071807;28;45740;-85
2022/10/30 14:21:36;;;;;;;;;2.00;2.00;;;;;;;;5059842;28;47371;-88
2022/10/30 14:24:03;;;;;;;;;3.00;3.00;;;;;;;;5079142;28;45370;-86
2022/10/30 14:26:31;;;;;;;;;21.33;18.00;;;;;;;;5086898;27;45431;-86
2022/10/30 14:29:22;;;;;;;;;3.50;3.50;;;;;;;;5074955;28;45458;-85